createdAt,value
2019-02-16T00:01:14.367Z,2.50
2019-02-16T00:03:43.696Z,2.40
2019-02-16T00:06:13.057Z,2.40
2019-02-16T00:08:42.383Z,2.50
2019-02-16T00:11:11.701Z,2.40
2019-02-16T00:13:41.076Z,2.40
2019-02-16T00:16:10.403Z,2.50
2019-02-16T00:18:39.721Z,2.50
2019-02-16T00:21:09.161Z,2.40
2019-02-16T00:23:38.487Z,2.40
2019-02-16T00:26:07.819Z,2.30
2019-02-16T00:28:37.171Z,2.30
2019-02-16T00:31:07.466Z,2.20
2019-02-16T00:33:36.861Z,2.10
2019-02-16T00:36:06.300Z,2.20
2019-02-16T00:38:35.631Z,2.30
2019-02-16T00:41:04.946Z,2.30
2019-02-16T00:43:34.306Z,2.50
2019-02-16T00:46:03.633Z,2.20
2019-02-16T00:48:32.957Z,2.30
2019-02-16T00:51:02.293Z,2.30
2019-02-16T00:53:31.684Z,2.30
2019-02-16T00:56:01.012Z,2.00
2019-02-16T00:58:30.377Z,1.90
2019-02-16T01:00:59.701Z,1.90
2019-02-16T01:03:29.028Z,1.90
2019-02-16T01:05:58.368Z,1.90
2019-02-16T01:08:27.706Z,2.10
2019-02-16T01:10:57.088Z,2.20
2019-02-16T01:13:26.412Z,2.30
2019-02-16T01:15:55.772Z,2.30
2019-02-16T01:18:25.089Z,2.20
2019-02-16T01:20:54.407Z,2.30
2019-02-16T01:23:23.750Z,2.30
2019-02-16T01:25:53.076Z,2.30
2019-02-16T01:28:22.396Z,2.50
2019-02-16T01:30:51.738Z,2.30
2019-02-16T01:33:21.059Z,2.10
2019-02-16T01:35:50.486Z,2.00
2019-02-16T01:38:19.879Z,2.20
2019-02-16T01:40:49.211Z,2.20
2019-02-16T01:43:18.678Z,1.90
2019-02-16T01:45:48.063Z,1.80
2019-02-16T01:48:17.422Z,1.80
2019-02-16T01:50:47.676Z,1.70
2019-02-16T01:53:17.006Z,1.60
2019-02-16T01:55:47.534Z,1.60
2019-02-16T01:58:17.058Z,1.70
2019-02-16T02:00:46.370Z,1.70
2019-02-16T02:03:15.697Z,1.60
2019-02-16T02:05:45.034Z,1.60
2019-02-16T02:08:14.362Z,1.70
2019-02-16T02:10:43.683Z,1.80
2019-02-16T02:13:13.011Z,1.60
2019-02-16T02:15:42.358Z,1.60
2019-02-16T02:18:11.689Z,1.40
2019-02-16T02:20:41.021Z,1.30
2019-02-16T02:23:10.361Z,1.20
2019-02-16T02:25:39.693Z,1.20
2019-02-16T02:28:09.020Z,1.20
2019-02-16T02:30:38.411Z,1.30
2019-02-16T02:33:07.843Z,1.30
2019-02-16T02:35:37.178Z,1.20
2019-02-16T02:38:06.500Z,1.40
2019-02-16T02:40:35.852Z,1.30
2019-02-16T02:43:05.163Z,1.30
2019-02-16T02:45:34.502Z,1.40
2019-02-16T02:48:03.882Z,1.50
2019-02-16T02:50:33.283Z,1.50
2019-02-16T02:53:02.632Z,1.60
2019-02-16T02:55:31.974Z,1.70
2019-02-16T02:58:01.304Z,1.70
2019-02-16T03:00:30.629Z,1.60
2019-02-16T03:02:59.991Z,1.40
2019-02-16T03:05:29.296Z,1.30
2019-02-16T03:07:58.624Z,1.40
2019-02-16T03:10:27.985Z,1.60
2019-02-16T03:12:57.300Z,1.50
2019-02-16T03:15:26.626Z,1.60
2019-02-16T03:17:55.986Z,1.50
2019-02-16T03:20:25.383Z,1.60
2019-02-16T03:23:17.505Z,1.40
2019-02-16T03:26:01.996Z,1.20
2019-02-16T03:28:52.613Z,1.20
2019-02-16T03:31:58.338Z,1.10
2019-02-16T03:34:33.310Z,1.20
2019-02-16T03:37:11.371Z,1.30
2019-02-16T03:39:42.462Z,1.50
2019-02-16T03:42:11.845Z,1.50
2019-02-16T03:44:41.257Z,1.60
2019-02-16T03:47:10.657Z,1.40
2019-02-16T03:49:40.053Z,1.30
2019-02-16T03:52:14.001Z,1.20
2019-02-16T03:54:40.590Z,1.10
2019-02-16T03:57:09.917Z,1.20
2019-02-16T03:59:39.247Z,1.20
2019-02-16T04:02:08.663Z,1.30
2019-02-16T04:04:37.988Z,1.20
2019-02-16T04:07:07.312Z,1.20
2019-02-16T04:09:36.698Z,1.10
2019-02-16T04:12:06.038Z,1.20
2019-02-16T04:14:35.351Z,1.20
2019-02-16T04:17:04.766Z,1.30
2019-02-16T04:19:34.095Z,1.30
2019-02-16T04:22:03.426Z,1.40
2019-02-16T04:24:32.785Z,1.20
2019-02-16T04:27:02.179Z,1.20
2019-02-16T04:29:31.519Z,1.00
2019-02-16T04:32:00.893Z,0.90
2019-02-16T04:34:30.202Z,0.80
2019-02-16T04:36:59.557Z,0.70
2019-02-16T04:39:28.905Z,0.70
2019-02-16T04:41:58.258Z,0.70
2019-02-16T04:44:27.615Z,0.90
2019-02-16T04:46:57.023Z,1.10
2019-02-16T04:49:26.361Z,1.10
2019-02-16T04:51:56.904Z,0.90
2019-02-16T04:54:26.233Z,0.90
2019-02-16T04:56:55.557Z,0.80
2019-02-16T04:59:24.911Z,0.80
2019-02-16T05:01:54.239Z,0.80
2019-02-16T05:04:23.555Z,0.70
2019-02-16T05:06:53.037Z,0.90
2019-02-16T05:09:22.373Z,1.00
2019-02-16T05:11:51.694Z,0.70
2019-02-16T05:14:21.121Z,0.50
2019-02-16T05:16:50.453Z,0.60
2019-02-16T05:19:19.873Z,0.80
2019-02-16T05:21:49.226Z,0.90
2019-02-16T05:24:18.550Z,0.80
2019-02-16T05:26:47.883Z,0.90
2019-02-16T05:29:17.234Z,0.80
2019-02-16T05:31:46.552Z,0.70
2019-02-16T05:34:15.880Z,0.60
2019-02-16T05:36:45.259Z,0.60
2019-02-16T05:39:14.585Z,0.50
2019-02-16T05:41:43.898Z,0.70
2019-02-16T05:44:13.244Z,0.90
2019-02-16T05:46:42.564Z,0.90
2019-02-16T05:49:11.892Z,0.60
2019-02-16T05:51:41.254Z,0.70
2019-02-16T05:54:10.577Z,0.70
2019-02-16T05:56:39.959Z,0.70
2019-02-16T05:59:09.313Z,0.80
2019-02-16T06:01:38.631Z,0.70
2019-02-16T06:04:08.042Z,0.70
2019-02-16T06:06:37.402Z,0.60
2019-02-16T06:09:06.788Z,0.70
2019-02-16T06:11:36.107Z,0.80
2019-02-16T06:14:05.484Z,0.70
2019-02-16T06:16:34.812Z,0.80
2019-02-16T06:19:04.138Z,0.90
2019-02-16T06:21:33.502Z,0.90
2019-02-16T06:24:02.813Z,0.80
2019-02-16T06:26:32.137Z,0.70
2019-02-16T06:29:01.490Z,0.70
2019-02-16T06:31:30.821Z,0.70
2019-02-16T06:34:00.149Z,0.80
2019-02-16T06:36:31.134Z,0.80
2019-02-16T06:39:00.590Z,0.50
2019-02-16T06:41:30.381Z,0.40
2019-02-16T06:43:59.787Z,0.60
2019-02-16T06:46:29.164Z,0.70
2019-02-16T06:48:58.486Z,0.70
2019-02-16T06:51:27.818Z,0.60
2019-02-16T06:53:57.177Z,0.80
2019-02-16T06:56:28.148Z,0.70
2019-02-16T06:58:57.492Z,0.80
2019-02-16T07:01:26.883Z,0.70
2019-02-16T07:03:56.203Z,0.60
2019-02-16T07:06:25.559Z,0.70
2019-02-16T07:08:54.904Z,0.60
2019-02-16T07:11:24.235Z,0.60
2019-02-16T07:13:53.645Z,0.80
2019-02-16T07:16:33.533Z,1.00
2019-02-16T07:19:04.620Z,0.90
2019-02-16T07:21:33.956Z,0.80
2019-02-16T07:24:03.358Z,0.60
2019-02-16T07:26:32.726Z,0.70
2019-02-16T07:29:03.086Z,1.00
2019-02-16T07:31:33.496Z,1.20
2019-02-16T07:34:02.819Z,1.10
2019-02-16T07:36:32.139Z,0.70
2019-02-16T07:39:01.494Z,0.50
2019-02-16T07:41:32.493Z,0.60
2019-02-16T07:44:03.467Z,0.80
2019-02-16T07:46:43.181Z,0.90
2019-02-16T07:49:20.099Z,0.90
2019-02-16T07:51:51.095Z,1.10
2019-02-16T07:54:24.817Z,1.30
2019-02-16T07:57:07.898Z,1.60
2019-02-16T07:59:38.869Z,1.50
2019-02-16T08:02:09.870Z,1.90
2019-02-16T08:04:47.013Z,2.00
2019-02-16T08:07:20.728Z,2.00
2019-02-16T08:10:03.869Z,2.10
2019-02-16T08:12:51.204Z,2.20
2019-02-16T08:15:37.171Z,2.10
2019-02-16T08:18:20.442Z,2.10
2019-02-16T08:20:54.114Z,2.40
2019-02-16T08:23:40.342Z,2.50
2019-02-16T08:26:09.662Z,2.50
2019-02-16T08:28:40.665Z,2.80
2019-02-16T08:31:29.842Z,3.10
2019-02-16T08:34:03.765Z,3.20
2019-02-16T08:36:34.758Z,3.20
2019-02-16T08:39:06.279Z,2.90
2019-02-16T08:41:43.298Z,2.90
2019-02-16T08:44:29.317Z,3.00
2019-02-16T08:47:00.314Z,3.20
2019-02-16T08:49:43.148Z,3.90
2019-02-16T08:52:19.666Z,4.00
2019-02-16T08:54:50.619Z,3.90
2019-02-16T08:57:24.645Z,3.60
2019-02-16T08:59:55.608Z,3.80
2019-02-16T09:02:26.627Z,3.70
2019-02-16T09:05:06.640Z,4.10
2019-02-16T09:07:49.620Z,3.90
2019-02-16T09:10:20.717Z,4.30
2019-02-16T09:12:51.723Z,4.30
2019-02-16T09:15:39.228Z,4.50
2019-02-16T09:18:26.617Z,4.50
2019-02-16T09:21:15.040Z,4.70
2019-02-16T09:23:46.261Z,4.70
2019-02-16T09:26:20.151Z,5.10
2019-02-16T09:28:56.996Z,5.10
2019-02-16T09:31:39.723Z,5.30
2019-02-16T09:34:19.354Z,5.70
2019-02-16T09:36:59.147Z,5.80
2019-02-16T09:39:39.277Z,5.50
2019-02-16T09:42:16.321Z,5.80
2019-02-16T09:44:47.283Z,5.90
2019-02-16T09:47:18.323Z,6.20
2019-02-16T09:49:49.383Z,6.50
2019-02-16T09:52:20.449Z,6.60
2019-02-16T09:55:03.248Z,6.90
2019-02-16T09:57:43.017Z,7.60
2019-02-16T10:00:19.906Z,7.70
2019-02-16T10:02:53.442Z,8.10
2019-02-16T10:05:24.513Z,8.50
2019-02-16T10:07:55.497Z,8.70
2019-02-16T10:10:26.479Z,8.80
2019-02-16T10:13:03.245Z,9.10
2019-02-16T10:15:49.261Z,8.60
2019-02-16T10:18:20.295Z,8.40
2019-02-16T10:20:57.420Z,8.70
2019-02-16T10:23:31.162Z,9.40
2019-02-16T10:26:04.911Z,9.50
2019-02-16T10:28:44.654Z,9.40
2019-02-16T10:31:16.622Z,9.70
2019-02-16T10:33:47.793Z,10.00
2019-02-16T10:36:24.809Z,10.60
2019-02-16T10:39:10.768Z,11.40
2019-02-16T10:41:50.856Z,11.90
2019-02-16T10:44:33.932Z,11.60
2019-02-16T10:47:07.648Z,11.60
2019-02-16T10:49:47.634Z,11.80
2019-02-16T10:52:18.670Z,11.30
2019-02-16T10:55:05.925Z,12.20
2019-02-16T10:57:40.046Z,13.00
2019-02-16T11:00:14.141Z,12.60
2019-02-16T11:03:00.222Z,12.60
2019-02-16T11:05:43.030Z,13.00
2019-02-16T11:08:14.012Z,13.70
2019-02-16T11:10:57.148Z,12.90
2019-02-16T11:13:36.802Z,12.90
2019-02-16T11:16:10.906Z,12.90
2019-02-16T11:18:47.909Z,13.20
2019-02-16T11:21:21.474Z,12.90
2019-02-16T11:24:09.088Z,12.40
2019-02-16T11:26:40.130Z,12.50
2019-02-16T11:29:27.218Z,12.10
2019-02-16T11:31:58.269Z,13.30
2019-02-16T11:34:31.970Z,13.50
2019-02-16T11:37:08.734Z,13.50
2019-02-16T11:39:45.507Z,13.20
2019-02-16T11:42:22.413Z,13.60
2019-02-16T11:44:56.358Z,13.50
2019-02-16T11:47:27.320Z,13.60
2019-02-16T11:50:13.118Z,13.00
2019-02-16T11:52:47.025Z,14.00
2019-02-16T11:55:23.782Z,14.10
2019-02-16T11:58:03.801Z,14.30
2019-02-16T12:00:40.448Z,14.90
2019-02-16T12:03:20.580Z,14.40
2019-02-16T12:06:00.716Z,14.60
2019-02-16T12:11:02.248Z,14.80
2019-02-16T12:13:36.181Z,14.40
2019-02-16T12:16:09.948Z,13.70
2019-02-16T12:18:40.934Z,14.60
2019-02-16T16:42:40.333Z,15.30
2019-02-16T16:45:11.395Z,15.10
2019-02-16T16:47:42.356Z,14.80
2019-02-16T16:50:28.340Z,14.60
2019-02-16T16:55:45.566Z,14.60
2019-02-16T16:58:19.197Z,14.00
2019-02-16T17:01:06.391Z,14.10
2019-02-16T17:03:37.358Z,14.00
2019-02-16T17:06:08.439Z,14.00
2019-02-16T17:08:39.413Z,14.20
2019-02-16T17:11:26.905Z,14.10
2019-02-16T17:14:00.587Z,13.80
2019-02-16T17:16:46.771Z,13.60
2019-02-16T17:37:15.602Z,13.30
2019-02-16T18:00:43.211Z,12.70
2019-02-16T18:03:16.976Z,11.70
2019-02-16T18:06:04.220Z,11.30
2019-02-16T18:08:38.096Z,11.40
2019-02-16T18:11:11.763Z,11.50
2019-02-16T18:13:42.768Z,11.50
2019-02-16T18:16:13.730Z,11.50
2019-02-16T18:19:01.116Z,11.20
2019-02-16T18:21:32.153Z,11.00
2019-02-16T18:24:09.185Z,11.00
2019-02-16T18:26:42.611Z,10.80
2019-02-16T18:29:16.113Z,10.80
2019-02-16T18:31:51.170Z,10.70
2019-02-16T18:34:28.377Z,10.40
2019-02-16T18:37:08.387Z,10.10
2019-02-16T18:39:39.558Z,10.00
2019-02-16T18:42:13.840Z,9.80
2019-02-16T18:44:47.614Z,9.90
2019-02-16T18:47:30.567Z,9.80
2019-02-16T18:50:01.572Z,9.80
2019-02-16T18:52:47.606Z,9.90
2019-02-16T18:55:34.806Z,9.80
2019-02-16T18:58:05.858Z,9.70
2019-02-16T19:00:42.889Z,9.80
2019-02-16T19:03:19.565Z,9.80
2019-02-16T19:05:53.629Z,9.60
2019-02-16T19:08:24.589Z,9.70
2019-02-16T19:11:12.099Z,9.80
2019-02-16T19:14:01.288Z,9.60
2019-02-16T19:16:34.939Z,9.50
2019-02-16T19:19:05.986Z,9.30
2019-02-16T19:21:39.647Z,9.00
2019-02-16T19:24:10.723Z,9.10
2019-02-16T19:26:56.687Z,8.80
2019-02-16T19:29:33.511Z,8.80
2019-02-16T19:32:14.754Z,8.80
2019-02-16T19:34:45.819Z,8.60
2019-02-16T19:37:28.732Z,8.30
2019-02-16T19:40:08.713Z,8.30
2019-02-16T19:42:39.748Z,8.30
2019-02-16T19:45:22.816Z,8.20
2019-02-16T19:48:09.894Z,8.20
2019-02-16T19:50:59.273Z,8.30
2019-02-16T19:53:30.298Z,7.90
2019-02-16T19:56:04.049Z,7.80
2019-02-16T19:58:37.986Z,7.80
2019-02-16T20:01:09.014Z,7.70
2019-02-16T20:03:43.016Z,7.60
2019-02-16T20:06:14.038Z,7.40
2019-02-16T20:08:51.120Z,7.30
2019-02-16T20:11:34.385Z,7.00
2019-02-16T20:14:08.315Z,6.80
2019-02-16T20:16:39.341Z,6.70
2019-02-16T20:19:19.352Z,6.80
2019-02-16T20:22:02.600Z,6.80
2019-02-16T20:24:46.620Z,6.70
2019-02-16T20:27:37.628Z,6.70
2019-02-16T20:30:26.175Z,6.60
2019-02-16T20:33:02.914Z,6.50
2019-02-16T20:35:36.826Z,6.70
2019-02-16T20:38:22.846Z,6.60
2019-02-16T20:41:00.068Z,6.50
2019-02-16T20:43:33.303Z,6.50
2019-02-16T20:46:03.712Z,6.60
2019-02-16T20:48:50.921Z,6.60
2019-02-16T20:51:30.721Z,6.70
2019-02-16T20:54:19.199Z,6.70
2019-02-16T20:57:02.273Z,6.70
2019-02-16T20:59:33.250Z,6.40
2019-02-16T21:02:10.046Z,6.30
2019-02-16T21:04:41.050Z,6.40
2019-02-16T21:07:14.501Z,6.40
2019-02-16T21:09:45.490Z,6.30
2019-02-16T21:12:22.515Z,6.20
2019-02-16T21:14:53.587Z,6.00
2019-02-16T21:17:27.613Z,6.00
2019-02-16T21:20:01.431Z,6.00
2019-02-16T21:22:32.462Z,5.80
2019-02-16T21:25:15.681Z,5.60
2019-02-16T21:27:58.278Z,5.50
2019-02-16T21:30:40.161Z,5.60
2019-02-16T21:33:17.201Z,5.50
2019-02-16T21:35:54.175Z,5.40
2019-02-16T21:38:27.845Z,5.40
2019-02-16T21:41:01.492Z,5.40
2019-02-16T21:43:47.464Z,5.20
2019-02-16T21:46:18.478Z,5.20
2019-02-16T21:48:49.554Z,5.30
2019-02-16T21:51:20.529Z,5.40
2019-02-16T21:53:57.637Z,5.30
2019-02-16T21:56:43.771Z,5.20
2019-02-16T21:59:23.512Z,5.30
2019-02-16T22:02:10.552Z,5.10
2019-02-16T22:04:56.534Z,4.80
2019-02-16T22:07:27.513Z,4.60
2019-02-16T22:10:04.869Z,4.50
2019-02-16T22:12:39.011Z,4.40
2019-02-16T22:15:09.308Z,4.20
2019-02-16T22:17:38.699Z,4.40
2019-02-16T22:20:10.292Z,4.50
2019-02-16T22:22:41.166Z,4.50
2019-02-16T22:25:10.809Z,4.50
2019-02-16T22:27:40.180Z,4.30
2019-02-16T22:30:10.737Z,4.10
2019-02-16T22:32:40.202Z,4.30
2019-02-16T22:35:09.666Z,4.20
2019-02-16T22:37:39.025Z,4.30
2019-02-16T22:40:09.093Z,4.00
2019-02-16T22:42:38.417Z,3.70
2019-02-16T22:45:10.507Z,3.70
2019-02-16T22:47:39.832Z,3.70
2019-02-16T22:50:10.699Z,3.60
2019-02-16T22:52:40.054Z,3.70
2019-02-16T22:55:10.507Z,3.70
2019-02-16T22:57:39.843Z,3.70
2019-02-16T23:00:17.057Z,3.90
2019-02-16T23:02:48.187Z,4.00
2019-02-16T23:05:17.660Z,3.60
2019-02-16T23:07:47.044Z,3.50
2019-02-16T23:10:16.451Z,3.50
2019-02-16T23:12:45.911Z,3.60
2019-02-16T23:15:15.490Z,3.80
2019-02-16T23:17:44.941Z,3.90
2019-02-16T23:20:14.353Z,3.70
2019-02-16T23:22:43.719Z,3.70
2019-02-16T23:25:13.115Z,3.80
2019-02-16T23:27:42.501Z,3.70
2019-02-16T23:30:12.469Z,3.60
2019-02-16T23:32:41.925Z,3.50
2019-02-16T23:35:11.324Z,3.50
2019-02-16T23:37:40.751Z,3.40
2019-02-16T23:40:10.205Z,3.20
2019-02-16T23:42:39.661Z,3.30
2019-02-16T23:45:10.149Z,3.30
2019-02-16T23:47:39.565Z,3.30
2019-02-16T23:50:11.095Z,3.20
2019-02-16T23:52:40.417Z,3.40
2019-02-16T23:55:10.923Z,3.30
2019-02-16T23:57:40.238Z,3.20
